Time;durP1;ratioP1;P1;durP2;ratioP2;P2;SDS_P1;SDS_P2;PMS_P1;PMS_P2;Temp;Humidity;BMP_temperature;BMP_pressure;BME280_temperature;BME280_humidity;BME280_pressure;Samples;Min_cycle;Max_cycle;Signal;HPM_P1;HPM_P2
2022/08/03 00:00:49;;;;;;;2.63;2.10;;;;;;;16.43;100.00;100889.06;5055465;28;20211;-73
2022/08/03 00:03:15;;;;;;;2.67;2.37;;;;;;;16.40;100.00;100884.78;5049697;28;20207;-73
2022/08/03 00:05:42;;;;;;;3.23;2.23;;;;;;;16.39;100.00;100884.84;5048461;28;20207;-73
2022/08/03 00:08:08;;;;;;;2.97;2.00;;;;;;;16.31;100.00;100885.19;5045629;28;20759;-74
2022/08/03 00:10:35;;;;;;;2.20;2.00;;;;;;;16.24;100.00;100887.25;5049636;28;20578;-73
2022/08/03 00:13:02;;;;;;;2.93;2.20;;;;;;;16.16;100.00;100880.63;5047911;28;20538;-74
2022/08/03 00:15:29;;;;;;;3.03;2.50;;;;;;;16.15;100.00;100878.94;5046762;28;20464;-74
2022/08/03 00:17:55;;;;;;;2.33;2.10;;;;;;;16.09;100.00;100877.41;5059750;28;20206;-73
2022/08/03 00:20:21;;;;;;;3.57;2.50;;;;;;;16.10;100.00;100871.25;5065179;28;20270;-74
2022/08/03 00:22:48;;;;;;;2.93;2.27;;;;;;;16.05;100.00;100873.22;5055050;28;20202;-74
2022/08/03 00:25:14;;;;;;;4.13;2.70;;;;;;;15.98;100.00;100874.44;5061035;28;20198;-72
2022/08/03 00:27:41;;;;;;;2.80;2.27;;;;;;;15.97;100.00;100868.31;5056239;23;20229;-73
2022/08/03 00:30:09;;;;;;;2.73;2.30;;;;;;;16.01;100.00;100864.63;5034764;28;20226;-73
2022/08/03 00:32:35;;;;;;;3.13;2.60;;;;;;;15.90;100.00;100870.38;5039306;28;20204;-73
2022/08/03 00:35:03;;;;;;;3.60;2.63;;;;;;;15.87;100.00;100872.28;5035758;28;20210;-72
2022/08/03 00:37:30;;;;;;;2.93;2.47;;;;;;;15.89;100.00;100865.19;5033391;28;20203;-73
2022/08/03 00:39:57;;;;;;;3.30;2.33;;;;;;;15.89;100.00;100863.41;5036491;28;20223;-72
2022/08/03 00:44:50;;;;;;;4.97;2.70;;;;;;;15.85;100.00;100871.50;5042050;28;20215;-74
2022/08/03 00:47:18;;;;;;;2.70;2.40;;;;;;;15.81;100.00;100868.16;5042025;28;20199;-74
2022/08/03 00:49:44;;;;;;;2.60;2.40;;;;;;;15.83;100.00;100858.41;5046717;28;20202;-74
2022/08/03 00:52:11;;;;;;;4.03;2.40;;;;;;;15.76;100.00;100857.00;5031787;28;20231;-74
2022/08/03 00:54:38;;;;;;;2.57;2.13;;;;;;;15.77;100.00;100857.84;5025700;28;20656;-74
2022/08/03 00:57:04;;;;;;;2.40;2.20;;;;;;;15.75;100.00;100860.53;5027889;28;20212;-74
2022/08/03 00:59:31;;;;;;;2.97;2.23;;;;;;;15.75;100.00;100851.78;5026675;28;20500;-74
2022/08/03 01:01:58;;;;;;;2.97;2.20;;;;;;;15.77;100.00;100856.03;5025974;28;20695;-74
2022/08/03 01:04:26;;;;;;;3.50;2.50;;;;;;;15.70;100.00;100851.94;5017798;28;20224;-74
2022/08/03 01:07:01;;;;;;;3.50;2.53;;;;;;;15.60;100.00;100859.41;5029094;28;20207;-74
2022/08/03 01:09:36;;;;;;;2.97;2.47;;;;;;;15.62;100.00;100851.44;5015572;28;20208;-74
2022/08/03 01:12:07;;;;;;;5.93;2.50;;;;;;;15.59;100.00;100856.84;5017714;28;20227;-74
2022/08/03 01:14:38;;;;;;;4.87;2.13;;;;;;;15.65;100.00;100856.56;5022218;28;20200;-74
2022/08/03 01:17:11;;;;;;;2.53;2.30;;;;;;;15.66;100.00;100858.28;5021271;28;20647;-74
2022/08/03 01:19:51;;;;;;;4.03;2.50;;;;;;;15.53;100.00;100861.44;5025464;28;20208;-74
2022/08/03 01:22:44;;;;;;;3.40;2.60;;;;;;;15.53;100.00;100855.31;5029768;28;20533;-74
2022/08/03 01:25:28;;;;;;;2.67;2.20;;;;;;;15.51;100.00;100854.53;5023911;28;20212;-74
2022/08/03 01:28:02;;;;;;;2.90;2.50;;;;;;;15.49;100.00;100857.22;5010074;28;20214;-74
2022/08/03 01:30:31;;;;;;;5.97;2.60;;;;;;;15.47;100.00;100852.97;5024803;28;20222;-74
2022/08/03 01:33:03;;;;;;;5.10;2.50;;;;;;;15.39;100.00;100852.41;5022045;28;20286;-74
2022/08/03 01:35:33;;;;;;;3.53;2.60;;;;;;;15.41;100.00;100861.09;5022804;28;20200;-74
2022/08/03 01:38:03;;;;;;;2.70;2.50;;;;;;;15.46;100.00;100856.50;5023181;28;20260;-74
2022/08/03 01:40:31;;;;;;;3.83;2.97;;;;;;;15.47;100.00;100851.19;5026459;28;20311;-74
2022/08/03 01:43:01;;;;;;;8.30;2.80;;;;;;;15.40;100.00;100859.41;5024413;28;20223;-73
2022/08/03 01:45:31;;;;;;;4.47;2.80;;;;;;;15.47;100.00;100859.06;5029655;28;20642;-74
2022/08/03 01:47:58;;;;;;;2.93;2.60;;;;;;;15.48;100.00;100852.06;5023961;28;20206;-74
2022/08/03 01:50:29;;;;;;;3.70;2.80;;;;;;;15.42;100.00;100853.13;5024488;28;20232;-74
2022/08/03 01:52:57;;;;;;;4.37;3.00;;;;;;;15.45;100.00;100846.91;5026287;28;20299;-74
2022/08/03 01:55:27;;;;;;;3.77;2.73;;;;;;;15.36;100.00;100852.56;5025528;28;20194;-73
2022/08/03 01:57:55;;;;;;;3.17;2.40;;;;;;;15.36;100.00;100863.09;5017228;28;20208;-74
2022/08/03 02:00:23;;;;;;;3.33;2.80;;;;;;;15.34;100.00;100855.25;5026900;28;20657;-74
2022/08/03 02:02:54;;;;;;;2.60;2.40;;;;;;;15.30;100.00;100859.78;5028250;28;20200;-74
2022/08/03 02:05:20;;;;;;;3.17;2.43;;;;;;;15.24;100.00;100861.81;5022598;28;20635;-74
2022/08/03 02:07:48;;;;;;;3.53;2.77;;;;;;;15.17;100.00;100855.97;5025672;28;20204;-74
2022/08/03 02:10:18;;;;;;;5.03;2.73;;;;;;;15.20;100.00;100852.38;5023281;28;20226;-74
2022/08/03 02:12:46;;;;;;;2.77;2.50;;;;;;;15.22;100.00;100854.00;5018755;28;20783;-74
2022/08/03 02:15:15;;;;;;;3.70;2.97;;;;;;;15.18;100.00;100856.81;5027253;28;20616;-74
2022/08/03 02:17:43;;;;;;;3.60;2.80;;;;;;;15.15;100.00;100853.38;5025415;28;20742;-74
2022/08/03 02:20:13;;;;;;;4.40;2.77;;;;;;;15.06;100.00;100851.16;5025387;28;20204;-74
2022/08/03 02:22:41;;;;;;;3.30;2.47;;;;;;;15.08;100.00;100851.94;5031062;28;20206;-73
2022/08/03 02:25:08;;;;;;;3.00;2.70;;;;;;;15.06;100.00;100840.66;5024428;28;20552;-74
2022/08/03 02:27:38;;;;;;;3.03;2.70;;;;;;;15.03;100.00;100848.66;5024999;28;20211;-74
2022/08/03 02:30:07;;;;;;;3.67;3.00;;;;;;;15.06;100.00;100845.91;5022858;28;20218;-74
2022/08/03 02:32:36;;;;;;;2.90;2.60;;;;;;;14.99;100.00;100840.97;5023671;28;20439;-74
2022/08/03 02:35:07;;;;;;;2.60;2.30;;;;;;;15.02;100.00;100840.81;5025330;28;20313;-74
2022/08/03 02:37:41;;;;;;;2.87;2.57;;;;;;;15.02;100.00;100840.81;5007985;28;20206;-74
2022/08/03 02:40:10;;;;;;;3.23;2.40;;;;;;;15.00;100.00;100840.88;5028775;28;20207;-74
2022/08/03 02:42:39;;;;;;;2.60;2.33;;;;;;;14.99;100.00;100851.47;5024863;28;20330;-74
2022/08/03 02:45:11;;;;;;;2.70;2.40;;;;;;;15.03;100.00;100842.56;5027573;28;20211;-74
2022/08/03 02:47:40;;;;;;;3.27;2.70;;;;;;;15.03;100.00;100840.78;5026530;28;20916;-74
2022/08/03 02:50:08;;;;;;;5.20;2.73;;;;;;;15.02;100.00;100839.06;5031006;28;20213;-74
2022/08/03 02:52:38;;;;;;;3.00;2.37;;;;;;;14.90;100.00;100847.47;5029030;28;20206;-74
2022/08/03 02:55:08;;;;;;;3.60;2.67;;;;;;;14.86;100.00;100846.72;5026957;28;20197;-74
2022/08/03 02:57:36;;;;;;;3.40;2.57;;;;;;;14.80;100.00;100843.50;5028149;28;20196;-74
2022/08/03 03:00:04;;;;;;;4.03;2.70;;;;;;;14.79;100.00;100847.88;5028521;28;20612;-74
2022/08/03 03:02:31;;;;;;;3.83;2.77;;;;;;;14.80;100.00;100846.13;5028760;28;20307;-74
2022/08/03 03:05:00;;;;;;;3.23;2.70;;;;;;;14.77;100.00;100849.69;5030212;28;20204;-74
2022/08/03 03:07:27;;;;;;;3.27;2.73;;;;;;;14.71;100.00;100849.97;5028366;28;20211;-74
2022/08/03 03:09:55;;;;;;;4.90;3.20;;;;;;;14.79;100.00;100849.63;5025008;28;20214;-74
2022/08/03 03:12:22;;;;;;;3.00;2.60;;;;;;;14.71;100.00;100848.19;5032648;28;20583;-74
2022/08/03 03:14:49;;;;;;;4.53;2.93;;;;;;;14.68;100.00;100852.69;5028936;28;20196;-74
2022/08/03 03:17:17;;;;;;;2.70;2.50;;;;;;;14.62;100.00;100847.72;5028431;28;20563;-74
2022/08/03 03:19:45;;;;;;;3.37;2.50;;;;;;;14.64;100.00;100846.72;5032777;28;20631;-74
2022/08/03 03:22:13;;;;;;;3.57;3.10;;;;;;;14.61;100.00;100854.69;5026605;28;20232;-74
2022/08/03 03:24:42;;;;;;;4.63;3.10;;;;;;;14.62;100.00;100852.97;5029307;28;20554;-74
2022/08/03 03:27:10;;;;;;;2.80;2.60;;;;;;;14.56;100.00;100851.38;5034581;28;20196;-74
2022/08/03 03:29:37;;;;;;;3.30;2.60;;;;;;;14.60;100.00;100842.53;5030243;28;20200;-74
2022/08/03 03:32:04;;;;;;;4.10;2.90;;;;;;;14.54;100.00;100848.81;5028134;28;20667;-74
2022/08/03 03:34:30;;;;;;;2.97;2.67;;;;;;;14.57;100.00;100853.09;5029125;28;20196;-74
2022/08/03 03:36:57;;;;;;;4.83;3.23;;;;;;;14.59;100.00;100840.78;5024932;28;20651;-74
2022/08/03 03:39:23;;;;;;;2.70;2.47;;;;;;;14.65;100.00;100847.56;5027263;28;20216;-74
2022/08/03 03:41:49;;;;;;;3.30;2.97;;;;;;;14.58;100.00;100839.06;5027019;28;20706;-74
2022/08/03 03:44:17;;;;;;;3.50;2.83;;;;;;;14.60;100.00;100845.16;5028317;28;20587;-74
2022/08/03 03:46:44;;;;;;;3.53;2.90;;;;;;;14.54;100.00;100848.81;5033452;28;20195;-74
2022/08/03 03:49:10;;;;;;;3.70;2.43;;;;;;;14.64;100.00;100846.72;5027241;28;20204;-74
2022/08/03 03:51:37;;;;;;;3.00;2.70;;;;;;;14.61;100.00;100840.75;5031089;28;20216;-74
2022/08/03 03:54:05;;;;;;;3.53;2.57;;;;;;;14.62;100.00;100845.09;5030070;28;20684;-74
2022/08/03 03:56:32;;;;;;;4.37;2.93;;;;;;;14.62;100.00;100852.97;5029206;28;20609;-74
2022/08/03 03:58:58;;;;;;;3.20;2.67;;;;;;;14.68;100.00;100850.06;5027240;28;20196;-74
2022/08/03 04:01:26;;;;;;;3.27;2.97;;;;;;;14.69;100.00;100847.41;5029938;28;20230;-74
2022/08/03 04:03:52;;;;;;;3.03;2.73;;;;;;;14.75;100.00;100852.38;5026798;28;20287;-74
2022/08/03 04:11:51;;;;;;;4.17;3.27;;;;;;;14.91;100.00;100857.03;5027411;28;20251;-74
2022/08/03 04:14:20;;;;;;;3.57;2.97;;;;;;;14.95;100.00;100856.84;5018142;28;20196;-74
2022/08/03 04:16:51;;;;;;;4.73;3.13;;;;;;;14.97;100.00;100869.91;5031238;28;20187;-74
2022/08/03 04:19:30;;;;;;;4.67;3.37;;;;;;;15.04;100.00;100857.38;5030599;28;20711;-73
2022/08/03 04:22:00;;;;;;;3.23;2.87;;;;;;;15.08;100.00;100853.72;5008619;28;20315;-74
2022/08/03 04:24:32;;;;;;;3.87;3.30;;;;;;;15.15;100.00;100855.16;5026409;28;20211;-74
2022/08/03 04:27:00;;;;;;;4.03;3.60;;;;;;;15.26;100.00;100857.34;5025322;28;20211;-74
2022/08/03 04:29:30;;;;;;;4.40;3.20;;;;;;;15.39;100.00;100852.41;5034406;28;20216;-74
2022/08/03 04:32:00;;;;;;;8.07;3.53;;;;;;;15.49;100.00;100857.22;5027848;28;20232;-74
2022/08/03 04:34:27;;;;;;;3.43;3.10;;;;;;;15.60;100.00;100856.78;5030881;28;20688;-74
2022/08/03 04:36:59;;;;;;;4.30;3.07;;;;;;;15.73;100.00;100858.88;5027581;28;20221;-74
2022/08/03 04:39:28;;;;;;;3.30;3.00;;;;;;;15.84;100.00;100856.63;5025777;28;20219;-74
2022/08/03 04:41:57;;;;;;;5.93;3.20;;;;;;;15.95;100.00;100862.25;5025820;28;20267;-74
2022/08/03 04:44:25;;;;;;;3.63;3.13;;;;;;;16.12;100.00;100865.94;5019377;28;20410;-74
2022/08/03 04:46:52;;;;;;;3.73;3.00;;;;;;;16.19;100.00;100855.03;5023269;28;20211;-74
2022/08/03 04:49:21;;;;;;;5.97;3.70;;;;;;;16.30;100.00;100862.44;5022922;28;20200;-74
2022/08/03 04:51:48;;;;;;;4.10;3.10;;;;;;;16.40;100.00;100866.34;5025514;28;20230;-74
2022/08/03 04:54:15;;;;;;;3.40;2.70;;;;;;;16.43;100.00;100873.25;5006831;28;20535;-74
2022/08/03 04:56:43;;;;;;;3.57;3.13;;;;;;;16.41;100.00;100875.09;5026035;28;20589;-74
2022/08/03 04:59:10;;;;;;;2.93;2.47;;;;;;;16.45;100.00;100877.53;5023988;28;20203;-74
2022/08/03 05:01:37;;;;;;;3.07;2.77;;;;;;;16.54;100.00;100878.88;5021642;28;20395;-74
2022/08/03 05:04:03;;;;;;;3.20;2.90;;;;;;;16.52;100.00;100874.63;5022955;28;20586;-74
2022/08/03 05:06:31;;;;;;;3.53;2.97;;;;;;;16.55;100.00;100885.84;5023863;28;20204;-74
2022/08/03 05:08:57;;;;;;;4.40;3.17;;;;;;;16.59;100.00;100883.94;5021274;28;20207;-74
2022/08/03 05:11:24;;;;;;;2.93;2.63;;;;;;;16.72;100.00;100889.44;5023280;28;20215;-74
2022/08/03 05:13:50;;;;;;;3.37;3.00;;;;;;;16.81;100.00;100889.00;5024609;28;20226;-74
2022/08/03 05:16:16;;;;;;;4.60;3.00;;;;;;;16.97;100.00;100883.88;5020095;28;20211;-74
2022/08/03 05:18:44;;;;;;;5.20;3.30;;;;;;;17.16;100.00;100884.69;5023581;28;20211;-74
2022/08/03 05:21:12;;;;;;;4.53;3.20;;;;;;;17.19;100.00;100891.59;5026920;28;20775;-74
2022/08/03 05:23:40;;;;;;;3.87;3.03;;;;;;;17.25;100.00;100887.78;5027009;28;20219;-74
2022/08/03 05:26:07;;;;;;;4.53;2.90;;;;;;;17.31;100.00;100898.06;5025128;28;20211;-74
2022/08/03 05:28:33;;;;;;;3.53;2.67;;;;;;;17.42;100.00;100900.97;5019002;28;20234;-74
2022/08/03 05:30:59;;;;;;;3.20;2.90;;;;;;;17.59;100.00;100898.34;5025497;28;20224;-74
2022/08/03 05:33:26;;;;;;;3.27;2.97;;;;;;;17.75;100.00;100894.94;5027250;28;20218;-74
2022/08/03 05:35:52;;;;;;;3.70;3.03;;;;;;;17.81;100.00;100896.38;5026380;28;20203;-74
2022/08/03 05:38:18;;;;;;;3.57;2.70;;;;;;;17.89;100.00;100897.72;5022007;28;20571;-74
2022/08/03 05:40:46;;;;;;;5.27;3.30;;;;;;;17.98;100.00;100893.75;5027767;28;20229;-74
2022/08/03 05:43:12;;;;;;;5.60;3.43;;;;;;;17.99;100.00;100895.44;5022000;28;20218;-74
2022/08/03 05:45:39;;;;;;;3.40;3.00;;;;;;;18.01;100.00;100903.28;5029019;28;20357;-74
2022/08/03 05:48:06;;;;;;;3.77;3.10;;;;;;;18.06;100.00;100898.59;5014130;28;20631;-74
2022/08/03 05:50:32;;;;;;;4.03;2.70;;;;;;;18.16;100.00;100900.66;5024233;28;20227;-74
2022/08/03 05:52:58;;;;;;;3.37;3.07;;;;;;;18.25;100.00;100898.47;5020115;28;20235;-74
2022/08/03 05:55:25;;;;;;;4.37;3.47;;;;;;;18.28;100.00;100900.97;5019448;28;20203;-74
2022/08/03 05:57:53;;;;;;;3.67;3.13;;;;;;;18.31;100.00;100901.66;5025367;28;20624;-74
2022/08/03 06:00:20;;;;;;;3.87;3.23;;;;;;;18.38;100.00;100911.84;5013825;28;20193;-74
2022/08/03 06:02:46;;;;;;;4.57;3.17;;;;;;;18.53;100.00;100905.75;5020701;28;20231;-74
2022/08/03 06:05:13;;;;;;;8.97;3.77;;;;;;;18.67;100.00;100912.91;5016627;28;20407;-74
2022/08/03 06:07:39;;;;;;;4.87;3.57;;;;;;;18.80;100.00;100913.06;5011572;28;20204;-74
2022/08/03 06:10:07;;;;;;;4.50;3.57;;;;;;;18.97;100.00;100917.44;5019375;28;20687;-74
2022/08/03 06:12:34;;;;;;;4.07;3.40;;;;;;;19.09;100.00;100909.66;5020777;28;20522;-74
2022/08/03 06:15:03;;;;;;;4.10;3.23;;;;;;;19.26;100.00;100918.41;5026293;28;20291;-74
2022/08/03 06:17:30;;;;;;;3.27;2.77;;;;;;;19.39;100.00;100914.13;5023360;28;20230;-74
2022/08/03 06:19:56;;;;;;;5.03;3.17;;;;;;;19.47;98.42;100911.88;5011796;28;20215;-74
2022/08/03 06:22:22;;;;;;;4.80;3.80;;;;;;;19.59;99.62;100912.09;5021139;28;20258;-74
2022/08/03 06:24:49;;;;;;;4.33;2.87;;;;;;;19.74;99.34;100910.38;5023193;28;20572;-74
2022/08/03 06:27:15;;;;;;;5.27;3.17;;;;;;;19.90;97.83;100910.28;5026777;28;20199;-74
2022/08/03 06:29:41;;;;;;;4.13;3.40;;;;;;;20.07;95.91;100911.88;5025441;28;20204;-74
2022/08/03 06:32:09;;;;;;;4.13;3.33;;;;;;;20.27;95.08;100918.63;5025393;28;20791;-74
2022/08/03 06:34:35;;;;;;;3.60;3.03;;;;;;;20.42;92.96;100921.16;5024496;28;20210;-74
2022/08/03 06:37:02;;;;;;;3.20;2.90;;;;;;;20.56;90.32;100927.38;5027715;28;20283;-74
2022/08/03 06:39:28;;;;;;;3.70;2.77;;;;;;;20.73;90.20;100921.03;5024259;28;20215;-74
2022/08/03 06:41:54;;;;;;;4.20;2.93;;;;;;;20.92;88.26;100920.69;5024307;28;20220;-75
2022/08/03 06:44:22;;;;;;;3.10;2.80;;;;;;;21.06;86.95;100925.09;5026951;28;20192;-73
2022/08/03 06:46:48;;;;;;;3.10;2.80;;;;;;;21.25;85.18;100924.72;5025812;28;20222;-72
2022/08/03 06:49:16;;;;;;;3.20;2.80;;;;;;;21.42;84.63;100927.09;5021317;28;20200;-72
2022/08/03 06:51:42;;;;;;;3.43;2.40;;;;;;;21.56;85.54;100928.84;5029617;28;20582;-73
2022/08/03 06:54:08;;;;;;;3.40;2.70;;;;;;;21.69;84.52;100932.38;5029299;28;20219;-73
2022/08/03 06:56:35;;;;;;;2.73;2.43;;;;;;;21.83;83.65;100934.09;5019908;28;20197;-72
2022/08/03 06:59:01;;;;;;;3.33;2.97;;;;;;;21.99;83.02;100938.38;5021873;28;20205;-73
2022/08/03 07:01:27;;;;;;;4.17;2.97;;;;;;;22.07;81.24;100933.34;5029190;28;20230;-73
2022/08/03 07:03:55;;;;;;;3.50;2.80;;;;;;;22.20;80.98;100936.84;5025349;28;20247;-73
2022/08/03 07:06:22;;;;;;;3.70;2.30;;;;;;;22.35;80.10;100937.59;5024769;28;20243;-72
2022/08/03 07:08:49;;;;;;;3.63;2.87;;;;;;;22.46;77.21;100940.38;5026840;28;20200;-72
2022/08/03 07:11:15;;;;;;;4.33;3.13;;;;;;;22.67;77.31;100942.41;5026367;28;20216;-73
2022/08/03 07:13:42;;;;;;;4.47;2.70;;;;;;;22.84;76.93;100939.38;5019843;28;20287;-73
2022/08/03 07:16:09;;;;;;;4.37;2.60;;;;;;;22.98;75.94;100934.88;5029552;28;20289;-73
2022/08/03 07:18:38;;;;;;;2.80;2.50;;;;;;;23.17;75.50;100934.41;5030568;28;20200;-72
2022/08/03 07:21:04;;;;;;;3.30;2.47;;;;;;;23.35;76.54;100924.19;5025372;28;20270;-72
2022/08/03 07:23:32;;;;;;;2.92;2.50;;;;;;;23.51;74.23;100927.38;5026379;28;20216;-73
2022/08/03 07:25:58;;;;;;;2.50;2.28;;;;;;;23.64;72.39;100922.00;5028032;28;20218;-73
2022/08/03 07:28:25;;;;;;;2.63;2.42;;;;;;;23.77;70.79;100924.56;5031896;28;20203;-73
2022/08/03 07:30:51;;;;;;;2.15;1.98;;;;;;;23.99;71.02;100923.75;5028476;28;20589;-73
2022/08/03 07:33:18;;;;;;;2.22;2.03;;;;;;;24.17;67.56;100927.66;5030237;28;20200;-73
2022/08/03 07:35:44;;;;;;;2.28;2.08;;;;;;;24.35;67.67;100933.31;5029283;28;20200;-73
2022/08/03 07:38:10;;;;;;;2.15;1.95;;;;;;;24.46;67.79;100928.97;5030975;28;20211;-73
2022/08/03 07:40:38;;;;;;;2.20;2.00;;;;;;;24.66;64.73;100938.91;5031435;28;20224;-73
2022/08/03 07:43:05;;;;;;;2.25;2.05;;;;;;;24.82;63.35;100930.50;5028622;28;20227;-73
2022/08/03 07:45:31;;;;;;;2.13;1.92;;;;;;;25.07;61.54;100933.84;5031652;28;20302;-72
2022/08/03 07:47:57;;;;;;;1.90;1.80;;;;;;;25.26;59.42;100933.19;5030643;28;20214;-73
2022/08/03 07:50:24;;;;;;;1.70;1.60;;;;;;;25.37;58.86;100932.28;5029124;28;20220;-73
2022/08/03 07:52:52;;;;;;;3.65;1.50;;;;;;;25.43;58.78;100923.75;5031375;28;20565;-73
2022/08/03 07:55:20;;;;;;;2.70;1.50;;;;;;;25.48;58.72;100925.03;5027476;28;20628;-72
2022/08/03 07:57:59;;;;;;;1.60;1.50;;;;;;;25.66;55.70;100929.81;5027543;28;20203;-73
2022/08/03 08:00:25;;;;;;;1.45;1.30;;;;;;;25.86;52.85;100931.63;5028246;28;20593;-73
2022/08/03 08:02:52;;;;;;;1.40;1.30;;;;;;;26.03;53.56;100921.31;5030395;28;20294;-73
2022/08/03 08:05:18;;;;;;;1.35;1.25;;;;;;;26.05;52.43;100925.56;5028946;28;20204;-73
2022/08/03 08:07:45;;;;;;;1.73;1.40;;;;;;;26.10;51.78;100916.31;5029333;28;20233;-73
2022/08/03 08:10:11;;;;;;;1.10;1.00;;;;;;;26.15;51.10;100917.59;5031062;28;20271;-73
2022/08/03 08:12:39;;;;;;;1.40;1.30;;;;;;;26.37;50.94;100919.22;5032649;28;20266;-73
2022/08/03 08:15:08;;;;;;;1.40;1.20;;;;;;;26.51;47.98;100920.69;5029584;28;20576;-73
2022/08/03 08:17:42;;;;;;;1.27;1.17;;;;;;;26.60;50.80;100917.19;5032466;28;20200;-73
2022/08/03 08:20:09;;;;;;;1.50;1.40;;;;;;;26.70;50.08;100914.56;5029709;28;20200;-73
2022/08/03 08:22:36;;;;;;;1.50;1.40;;;;;;;26.96;48.89;100920.19;5033568;28;20219;-73
2022/08/03 08:25:02;;;;;;;1.92;1.52;;;;;;;26.98;48.87;100917.38;5030304;28;20195;-73
2022/08/03 08:27:29;;;;;;;2.80;1.42;;;;;;;27.11;48.75;100917.97;5028776;28;20222;-73
2022/08/03 08:29:55;;;;;;;2.88;1.30;;;;;;;27.14;49.73;100911.47;5026686;28;20652;-73
2022/08/03 08:32:23;;;;;;;1.38;1.27;;;;;;;27.16;48.50;100918.41;5023082;28;20220;-73
2022/08/03 08:34:49;;;;;;;1.60;1.30;;;;;;;27.24;48.81;100908.81;5036156;28;20195;-73
2022/08/03 08:37:16;;;;;;;2.28;1.30;;;;;;;27.39;47.92;100910.09;5022139;28;20204;-73
2022/08/03 08:39:42;;;;;;;1.80;1.20;;;;;;;27.54;45.58;100916.69;5033975;28;20199;-73
2022/08/03 08:42:09;;;;;;;1.58;1.40;;;;;;;27.60;45.83;100915.28;5029303;28;20223;-73
2022/08/03 08:44:36;;;;;;;1.50;1.40;;;;;;;27.60;47.10;100915.28;5030333;28;20218;-73
2022/08/03 08:47:03;;;;;;;2.03;1.60;;;;;;;27.73;46.86;100915.81;5023652;28;20688;-73
2022/08/03 08:49:32;;;;;;;1.50;1.40;;;;;;;27.88;48.60;100913.53;5024336;28;20689;-73
2022/08/03 08:52:00;;;;;;;2.25;1.30;;;;;;;28.02;45.47;100914.06;5028995;28;20228;-73
2022/08/03 08:54:27;;;;;;;2.20;1.33;;;;;;;28.04;44.41;100918.28;5020674;28;20207;-73
2022/08/03 08:56:58;;;;;;;1.30;1.10;;;;;;;28.11;44.37;100914.03;5023741;28;20224;-73
2022/08/03 08:59:25;;;;;;;1.30;1.20;;;;;;;28.22;45.55;100913.00;5026237;28;20290;-73
2022/08/03 09:01:56;;;;;;;1.50;1.40;;;;;;;28.43;45.14;100918.09;5029885;28;20732;-73
2022/08/03 09:04:22;;;;;;;1.38;1.23;;;;;;;28.46;44.70;100922.31;5030997;28;20228;-73
2022/08/03 09:06:50;;;;;;;1.30;1.20;;;;;;;28.57;44.47;100918.63;5028469;28;20683;-73
2022/08/03 09:09:17;;;;;;;1.50;1.40;;;;;;;28.58;42.74;100917.63;5029855;28;20196;-73
2022/08/03 09:11:43;;;;;;;1.83;1.33;;;;;;;28.64;44.21;100919.72;5028275;28;20220;-73
2022/08/03 09:14:11;;;;;;;3.45;1.75;;;;;;;28.87;43.58;100909.38;5009969;28;20207;-73
2022/08/03 09:16:37;;;;;;;1.33;1.23;;;;;;;28.87;41.98;100910.22;5013695;28;20199;-73
2022/08/03 09:19:12;;;;;;;5.38;3.58;;;;;;;28.84;43.55;100907.00;5013142;28;20711;-73
2022/08/03 09:21:39;;;;;;;1.80;1.45;;;;;;;29.01;43.70;100908.84;5022912;28;20658;-73
2022/08/03 09:24:07;;;;;;;1.75;1.60;;;;;;;29.08;43.77;100895.66;5019622;28;20242;-73
2022/08/03 09:26:35;;;;;;;1.55;1.45;;;;;;;29.13;42.35;100898.72;5023565;28;20192;-73
2022/08/03 09:29:04;;;;;;;2.50;1.42;;;;;;;29.17;43.00;100902.81;5017918;28;20281;-73
2022/08/03 09:31:33;;;;;;;1.85;1.67;;;;;;;29.25;45.16;100889.47;5029039;28;20233;-73
2022/08/03 09:34:01;;;;;;;2.13;1.92;;;;;;;29.37;42.12;100894.56;5022938;28;20286;-73
2022/08/03 09:36:39;;;;;;;5.60;4.20;;;;;;;29.47;43.69;100892.63;5025886;28;20635;-73
2022/08/03 09:39:09;;;;;;;7.15;6.03;;;;;;;29.58;43.99;100881.63;5024793;28;20294;-73
2022/08/03 09:41:37;;;;;;;3.40;2.10;;;;;;;29.61;42.99;100892.06;5034195;28;20219;-73
2022/08/03 09:44:03;;;;;;;1.45;1.35;;;;;;;29.62;41.87;100887.53;5024851;28;20250;-73
2022/08/03 09:46:32;;;;;;;1.45;1.35;;;;;;;29.64;41.23;100891.75;5029302;28;20200;-73
2022/08/03 09:49:11;;;;;;;2.28;2.08;;;;;;;29.81;43.41;100891.88;5033031;28;20467;-72
2022/08/03 09:51:38;;;;;;;1.92;1.60;;;;;;;29.88;41.96;100889.41;5026563;28;20711;-73
2022/08/03 09:54:05;;;;;;;1.60;1.50;;;;;;;29.92;41.91;100880.00;5019076;28;20192;-73
2022/08/03 09:56:44;;;;;;;1.65;1.50;;;;;;;29.99;39.46;100886.41;5021140;28;20592;-73
2022/08/03 09:59:14;;;;;;;2.17;1.70;;;;;;;29.94;39.55;100878.84;5020395;28;20283;-73
2022/08/03 10:01:41;;;;;;;2.00;1.80;;;;;;;30.09;42.02;100875.56;5025043;28;20235;-73
2022/08/03 10:04:13;;;;;;;1.45;1.35;;;;;;;30.21;42.11;100877.78;5019736;28;20557;-70
2022/08/03 10:06:39;;;;;;;3.33;1.30;;;;;;;30.25;41.53;100880.97;5019283;28;20216;-71
2022/08/03 10:09:08;;;;;;;1.40;1.30;;;;;;;30.45;39.55;100881.59;5020740;28;20215;-71
2022/08/03 10:11:34;;;;;;;2.92;1.40;;;;;;;30.55;39.29;100878.75;5029746;28;20246;-70
2022/08/03 10:14:04;;;;;;;1.73;1.63;;;;;;;30.63;38.93;100877.94;5025499;28;20211;-71
2022/08/03 10:16:34;;;;;;;1.30;1.20;;;;;;;30.66;39.70;100870.38;5027492;28;20207;-71
2022/08/03 10:19:00;;;;;;;2.10;1.30;;;;;;;30.78;39.49;100876.25;5018878;28;20216;-70
2022/08/03 10:21:32;;;;;;;4.22;1.45;;;;;;;30.71;39.76;100876.09;5010846;28;20258;-70
2022/08/03 10:23:59;;;;;;;1.77;1.30;;;;;;;30.77;39.01;100870.03;5019669;28;20775;-70
2022/08/03 10:26:28;;;;;;;2.78;1.50;;;;;;;30.82;39.67;100863.31;5026958;28;20204;-71
2022/08/03 10:28:57;;;;;;;2.35;1.35;;;;;;;30.80;37.76;100868.03;5028741;28;20207;-71
2022/08/03 10:31:31;;;;;;;1.30;1.20;;;;;;;30.81;37.60;100857.09;5025403;28;20220;-71
2022/08/03 10:33:59;;;;;;;1.17;1.08;;;;;;;30.94;38.26;100859.31;5025362;28;20669;-71
2022/08/03 10:36:30;;;;;;;2.75;1.20;;;;;;;31.05;38.43;100858.16;5025036;28;20199;-70
2022/08/03 10:38:57;;;;;;;1.70;1.58;;;;;;;31.11;37.75;100857.47;5024357;28;20231;-70
2022/08/03 10:41:30;;;;;;;1.30;1.20;;;;;;;31.18;38.05;100854.94;5024647;28;20338;-70
2022/08/03 10:44:02;;;;;;;1.33;1.20;;;;;;;31.08;38.42;100858.66;5022689;28;20227;-70
2022/08/03 10:46:32;;;;;;;1.70;1.58;;;;;;;31.14;38.86;100855.28;5026090;28;20269;-70
2022/08/03 10:48:59;;;;;;;12.93;2.85;;;;;;;31.14;37.44;100849.88;5026898;28;20212;-70
2022/08/03 10:51:30;;;;;;;1.60;1.50;;;;;;;31.22;37.08;100851.75;5023052;28;20454;-70
2022/08/03 10:53:58;;;;;;;2.22;1.65;;;;;;;31.42;36.18;100844.13;5019266;28;20766;-71
2022/08/03 10:59:57;;;;;;;14.98;2.35;;;;;;;31.60;35.18;100849.34;5022598;28;20345;-70
2022/08/03 11:03:15;;;;;;;3.75;1.85;;;;;;;31.52;35.29;100839.44;5030605;28;20275;-70
2022/08/03 11:05:44;;;;;;;3.03;1.50;;;;;;;31.59;33.76;100844.13;5024314;28;20751;-70
2022/08/03 11:08:22;;;;;;;1.10;1.00;;;;;;;31.72;31.76;100843.59;5025872;28;20196;-71
2022/08/03 11:10:49;;;;;;;1.42;1.33;;;;;;;31.67;31.65;100834.16;5026280;28;20230;-70
2022/08/03 11:13:17;;;;;;;1.50;1.40;;;;;;;31.55;31.73;100840.94;5027094;28;20196;-70
2022/08/03 11:15:46;;;;;;;1.38;1.27;;;;;;;31.58;33.81;100839.75;5027686;28;20198;-70
2022/08/03 11:18:13;;;;;;;1.25;1.15;;;;;;;31.56;35.38;100831.84;5024229;28;20211;-71
2022/08/03 11:20:49;;;;;;;1.60;1.50;;;;;;;31.70;37.30;100828.44;5026931;28;20231;-70
2022/08/03 11:23:17;;;;;;;1.20;1.10;;;;;;;31.77;35.75;100830.41;5028378;28;20215;-70
2022/08/03 11:26:08;;;;;;;1.25;1.15;;;;;;;31.76;34.94;100829.59;5033866;28;20364;-71
2022/08/03 11:28:35;;;;;;;3.05;1.30;;;;;;;31.88;34.89;100827.34;5020765;28;20599;-70
2022/08/03 11:31:39;;;;;;;1.02;1.02;;;;;;;31.92;35.67;100825.97;5027129;28;20591;-70
2022/08/03 11:34:06;;;;;;;1.38;1.27;;;;;;;31.82;35.56;100828.03;5020361;28;20601;-70
2022/08/03 11:37:09;;;;;;;1.27;1.17;;;;;;;31.70;34.28;100814.97;5035166;28;20220;-70
2022/08/03 11:39:39;;;;;;;1.58;1.48;;;;;;;31.84;32.72;100821.47;5016163;28;20564;-71